Time;durP1;ratioP1;P1;durP2;ratioP2;P2;SDS_P1;SDS_P2;PMS_P1;PMS_P2;Temp;Humidity;BMP_temperature;BMP_pressure;BME280_temperature;BME280_humidity;BME280_pressure;Samples;Min_cycle;Max_cycle;Signal;HPM_P1;HPM_P2
2021/10/17 00:00:39;;;;;;;;;26.00;25.00;;;;;10.66;68.83;101775.75;5033923;28;45553;-72
2021/10/17 00:03:05;;;;;;;;;22.75;22.75;;;;;10.63;68.87;101781.09;5032261;28;45922;-72
2021/10/17 00:05:32;;;;;;;;;28.33;23.00;;;;;10.61;69.04;101782.03;5031985;28;56169;-72
2021/10/17 00:07:59;;;;;;;;;24.25;22.00;;;;;10.58;69.04;101777.72;5032884;28;46342;-72
2021/10/17 00:10:31;;;;;;;;;30.25;26.75;;;;;10.54;69.11;101781.31;5035197;28;45449;-72
2021/10/17 00:13:03;;;;;;;;;28.00;26.75;;;;;10.50;69.38;101771.81;5033343;28;45517;-72
2021/10/17 00:15:30;;;;;;;;;29.00;24.50;;;;;10.47;69.50;101768.41;5034171;28;45566;-72
2021/10/17 00:17:56;;;;;;;;;30.75;26.00;;;;;10.45;69.00;101768.44;5032410;28;45479;-72
2021/10/17 00:20:23;;;;;;;;;27.75;24.25;;;;;10.45;69.58;101773.69;5018543;28;45533;-72
2021/10/17 00:22:49;;;;;;;;;32.75;24.75;;;;;10.32;69.54;101751.25;5035948;28;45531;-72
2021/10/17 00:25:15;;;;;;;;;26.50;21.75;;;;;10.33;69.18;101753.81;5036614;28;45318;-72
2021/10/17 00:27:40;;;;;;;;;26.00;24.75;;;;;10.25;69.56;101745.31;5036316;28;45486;-72
2021/10/17 00:30:09;;;;;;;;;29.00;25.75;;;;;10.39;69.61;101773.88;5035801;28;45416;-72
2021/10/17 00:32:35;;;;;;;;;27.00;24.00;;;;;10.35;69.66;101764.31;5035073;28;45606;-72
2021/10/17 00:35:01;;;;;;;;;31.25;25.75;;;;;10.35;69.89;101767.81;5035263;28;45570;-72
2021/10/17 00:37:29;;;;;;;;;24.75;24.00;;;;;10.35;69.76;101767.81;5036613;28;46007;-72
2021/10/17 00:39:54;;;;;;;;;26.75;25.25;;;;;10.08;69.95;101722.06;5032917;28;45737;-72
2021/10/17 00:42:20;;;;;;;;;29.75;24.25;;;;;10.08;70.11;101723.81;5034397;28;45543;-72
2021/10/17 00:44:54;;;;;;;;;30.25;24.75;;;;;10.19;70.08;101756.78;5035588;28;45387;-72
2021/10/17 00:47:19;;;;;;;;;34.00;28.75;;;;;10.22;69.98;101765.50;5035721;28;45717;-72
2021/10/17 00:49:44;;;;;;;;;30.25;27.50;;;;;9.93;70.41;101730.31;5016870;28;45409;-72
2021/10/17 00:52:10;;;;;;;;;35.75;27.75;;;;;10.15;70.38;101773.53;5036327;28;45371;-72
2021/10/17 00:54:35;;;;;;;;;31.75;28.75;;;;;10.15;70.27;101778.78;5035855;28;45534;-72
2021/10/17 00:57:01;;;;;;;;;33.50;25.00;;;;;10.11;70.52;101771.88;5017636;28;48299;-72
2021/10/17 00:59:26;;;;;;;;;31.75;26.50;;;;;10.12;70.55;101770.97;5036180;28;45374;-72
2021/10/17 01:01:51;;;;;;;;;37.25;27.00;;;;;10.01;70.56;101759.00;5036096;28;45433;-72
2021/10/17 01:04:17;;;;;;;;;31.25;27.75;;;;;10.08;70.52;101768.47;5035740;28;49126;-72
2021/10/17 01:06:42;;;;;;;;;30.75;25.75;;;;;10.06;70.72;101776.38;5035440;28;46029;-72
2021/10/17 01:09:07;;;;;;;;;35.00;29.00;;;;;10.04;70.36;101770.31;5035928;28;45263;-72
2021/10/17 01:11:44;;;;;;;;;35.00;31.67;;;;;10.02;70.59;101764.19;5035236;28;45473;-72
2021/10/17 01:14:18;;;;;;;;;33.50;28.25;;;;;9.98;70.59;101762.56;5027981;28;45476;-72
2021/10/17 01:16:44;;;;;;;;;37.50;26.75;;;;;9.94;70.57;101761.78;5035851;28;45497;-72
2021/10/17 01:19:10;;;;;;;;;30.75;27.75;;;;;9.93;70.87;101756.56;5033525;28;45496;-72
2021/10/17 01:21:38;;;;;;;;;32.75;26.75;;;;;9.93;70.83;101753.94;5033998;28;45379;-72
2021/10/17 01:24:04;;;;;;;;;30.50;29.00;;;;;9.87;70.26;101744.47;5032960;28;45543;-72
2021/10/17 01:26:29;;;;;;;;;28.75;27.75;;;;;9.88;70.49;101754.06;5034588;28;45565;-72
2021/10/17 01:28:55;;;;;;;;;28.25;26.25;;;;;9.85;70.66;101751.50;5035747;28;45356;-72
2021/10/17 01:31:31;;;;;;;;;27.75;23.75;;;;;9.79;70.55;101745.53;5035540;28;45691;-72
2021/10/17 01:33:56;;;;;;;;;31.50;27.50;;;;;9.78;70.58;101752.53;5036450;28;45669;-72
2021/10/17 01:36:21;;;;;;;;;33.75;27.25;;;;;9.71;70.78;101742.19;5035235;28;47735;-72
2021/10/17 01:38:47;;;;;;;;;31.67;26.00;;;;;9.74;70.78;101756.13;5034294;28;55372;-72
2021/10/17 01:41:12;;;;;;;;;29.67;24.00;;;;;9.69;70.92;101747.50;5035074;28;46016;-72
2021/10/17 01:43:37;;;;;;;;;32.00;27.75;;;;;9.70;70.99;101748.34;5034312;28;45742;-72
2021/10/17 01:46:03;;;;;;;;;25.25;24.25;;;;;9.68;71.08;101746.63;5033881;28;48193;-72
2021/10/17 01:48:28;;;;;;;;;34.75;26.75;;;;;9.64;70.99;101744.97;5035720;28;45706;-72
2021/10/17 01:50:54;;;;;;;;;28.75;24.50;;;;;9.66;71.42;101751.06;5034968;28;45514;-72
2021/10/17 01:53:19;;;;;;;;;27.25;24.00;;;;;9.65;71.31;101751.94;5034788;28;47421;-72
2021/10/17 01:55:44;;;;;;;;;28.75;25.00;;;;;9.63;71.50;101760.78;5034455;28;46018;-72
2021/10/17 01:58:10;;;;;;;;;28.75;25.25;;;;;9.63;71.28;101752.91;5034113;28;45443;-72
2021/10/17 02:00:35;;;;;;;;;33.75;27.75;;;;;9.64;71.54;101759.84;5036252;28;45441;-72
2021/10/17 02:03:00;;;;;;;;;30.00;25.25;;;;;9.60;71.47;101761.69;5034430;28;45680;-72
2021/10/17 02:05:26;;;;;;;;;29.00;24.25;;;;;9.53;71.22;101748.75;5034712;28;45973;-72
2021/10/17 02:07:51;;;;;;;;;33.50;29.50;;;;;9.57;71.79;101755.66;5034880;28;45365;-72
2021/10/17 02:10:16;;;;;;;;;32.00;24.00;;;;;9.38;71.63;101729.81;5033670;28;45583;-72
2021/10/17 02:12:41;;;;;;;;;28.67;22.67;;;;;9.49;71.36;101749.72;5033891;28;51262;-72
2021/10/17 02:15:07;;;;;;;;;27.50;24.25;;;;;9.52;71.42;101752.28;5033848;28;46080;-72
2021/10/17 02:17:32;;;;;;;;;30.00;27.25;;;;;9.51;71.48;101763.69;5034846;28;45376;-72
2021/10/17 02:19:59;;;;;;;;;30.50;28.00;;;;;9.48;71.51;101756.72;5034955;28;45384;-72
2021/10/17 02:22:24;;;;;;;;;33.00;28.25;;;;;9.47;71.41;101746.25;5033856;28;45640;-72
2021/10/17 02:24:50;;;;;;;;;32.00;26.50;;;;;9.47;71.24;101751.50;5016718;28;46102;-72
2021/10/17 02:27:15;;;;;;;;;27.00;26.25;;;;;9.44;71.72;101744.56;5034859;28;45388;-72
2021/10/17 02:29:40;;;;;;;;;28.75;27.25;;;;;9.39;71.60;101735.91;5033978;28;45515;-72
2021/10/17 02:32:06;;;;;;;;;32.50;27.00;;;;;9.39;71.60;101734.16;5034081;28;45276;-72
2021/10/17 02:34:32;;;;;;;;;31.00;26.00;;;;;9.42;71.91;101743.75;5034611;28;46049;-72
2021/10/17 02:36:58;;;;;;;;;25.25;24.75;;;;;9.41;71.87;101739.41;5034157;28;45306;-72
2021/10/17 02:39:23;;;;;;;;;26.25;23.00;;;;;9.40;71.61;101737.69;5033756;28;45597;-72
2021/10/17 02:41:49;;;;;;;;;26.67;23.67;;;;;9.40;71.53;101737.69;5032338;28;56990;-72
2021/10/17 02:44:14;;;;;;;;;30.00;27.50;;;;;9.40;71.75;101737.69;5034031;28;45436;-72
2021/10/17 02:46:39;;;;;;;;;36.00;26.67;;;;;9.38;71.55;101737.69;5034222;28;58543;-72
2021/10/17 02:49:05;;;;;;;;;28.25;22.25;;;;;9.35;71.61;101740.41;5034906;28;45427;-72
2021/10/17 02:51:30;;;;;;;;;29.50;24.25;;;;;9.36;71.39;101741.25;5034375;28;45461;-72
2021/10/17 02:53:55;;;;;;;;;24.50;24.00;;;;;9.33;71.55;101738.69;5033520;28;46112;-72
2021/10/17 02:56:22;;;;;;;;;36.00;26.25;;;;;9.30;71.52;101747.50;5032805;28;45498;-72
2021/10/17 02:58:47;;;;;;;;;35.00;27.75;;;;;9.28;71.47;101740.53;5034780;28;45395;-72
2021/10/17 03:01:12;;;;;;;;;36.25;28.50;;;;;9.25;72.01;101736.25;5034844;28;45376;-72
2021/10/17 03:03:38;;;;;;;;;31.00;26.50;;;;;9.13;71.75;101715.50;5033474;28;46306;-72
2021/10/17 03:06:03;;;;;;;;;29.25;26.25;;;;;9.17;71.74;101724.19;5034338;28;45451;-72
2021/10/17 03:08:28;;;;;;;;;28.75;23.75;;;;;9.21;71.67;101725.84;5032796;28;45653;-72
2021/10/17 03:10:53;;;;;;;;;30.50;24.75;;;;;9.22;71.76;101730.19;5033720;28;45314;-72
2021/10/17 03:13:19;;;;;;;;;24.25;23.25;;;;;9.20;72.05;101732.00;5033168;28;46233;-72
2021/10/17 03:15:44;;;;;;;;;24.75;23.00;;;;;9.13;72.12;101724.25;5033131;28;45420;-72
2021/10/17 03:18:09;;;;;;;;;32.50;27.25;;;;;9.15;72.49;101729.47;5033918;28;45511;-72
2021/10/17 03:20:35;;;;;;;;;29.00;29.00;;;;;8.99;71.92;101709.72;5034602;28;45438;-72
2021/10/17 03:23:00;;;;;;;;;29.00;26.75;;;;;9.03;72.47;101716.59;5032689;28;45407;-72
2021/10/17 03:25:25;;;;;;;;;32.33;25.00;;;;;9.07;72.28;101726.13;5032652;28;52619;-72
2021/10/17 03:27:51;;;;;;;;;28.75;23.75;;;;;9.00;72.39;101725.41;5034229;28;46546;-72
2021/10/17 03:30:16;;;;;;;;;31.67;25.33;;;;;8.98;72.54;101729.81;5033746;28;48240;-72
2021/10/17 03:32:42;;;;;;;;;35.25;26.75;;;;;9.01;72.78;101729.75;5033276;28;45643;-72
2021/10/17 03:35:07;;;;;;;;;30.50;25.00;;;;;9.04;72.15;101737.56;5034312;28;45790;-72
2021/10/17 03:37:33;;;;;;;;;25.75;24.50;;;;;9.02;72.52;101734.09;5033921;28;45553;-72
2021/10/17 03:39:59;;;;;;;;;29.25;23.25;;;;;9.01;72.39;101734.13;5033373;28;45595;-72
2021/10/17 03:42:25;;;;;;;;;27.50;21.50;;;;;8.97;72.59;101721.97;5033765;28;45404;-72
2021/10/17 03:44:50;;;;;;;;;30.75;23.75;;;;;8.86;72.54;101709.94;5014791;28;45930;-72
2021/10/17 03:47:15;;;;;;;;;29.75;26.00;;;;;8.81;72.37;101705.69;5033083;28;45379;-72
2021/10/17 03:49:41;;;;;;;;;24.00;22.67;;;;;8.88;72.66;101717.78;5032756;28;45479;-72
2021/10/17 03:52:06;;;;;;;;;25.50;23.25;;;;;8.85;72.51;101713.47;5032904;28;45379;-72
2021/10/17 03:54:31;;;;;;;;;27.75;23.75;;;;;8.82;73.04;101712.66;5033425;28;45339;-72
2021/10/17 03:56:57;;;;;;;;;29.00;27.50;;;;;8.79;72.94;101712.72;5015405;28;45356;-72
2021/10/17 03:59:22;;;;;;;;;31.25;23.00;;;;;8.78;72.91;101711.88;5015336;28;45451;-72
2021/10/17 04:01:47;;;;;;;;;32.00;22.50;;;;;8.70;72.88;101700.66;5033489;28;45346;-72
2021/10/17 04:04:13;;;;;;;;;27.00;23.50;;;;;8.69;73.01;101705.94;5032328;28;45883;-72
2021/10/17 04:06:38;;;;;;;;;25.50;22.75;;;;;8.70;72.49;101723.38;5033276;28;45515;-72
2021/10/17 04:09:04;;;;;;;;;23.25;21.75;;;;;8.69;72.33;101713.81;5032427;28;45435;-72
2021/10/17 04:11:30;;;;;;;;;31.50;27.25;;;;;8.68;72.81;101709.47;5032702;28;45499;-72
2021/10/17 04:13:55;;;;;;;;;26.50;21.75;;;;;8.70;72.73;101715.53;5032697;28;45462;-72
2021/10/17 04:16:21;;;;;;;;;28.50;26.50;;;;;8.70;72.46;101721.63;5032785;28;45691;-72
2021/10/17 04:18:46;;;;;;;;;29.75;27.50;;;;;8.66;72.26;101711.22;5033273;28;48905;-72
2021/10/17 04:21:11;;;;;;;;;36.00;31.25;;;;;8.63;73.05;101705.16;5031913;28;45440;-72
2021/10/17 04:23:36;;;;;;;;;31.00;27.50;;;;;8.66;72.66;101713.84;5031836;28;45377;-72
2021/10/17 04:26:02;;;;;;;;;32.25;25.25;;;;;8.64;72.66;101706.03;5032787;28;45527;-72
2021/10/17 04:28:27;;;;;;;;;5.50;0.75;;;;;8.62;72.71;101713.94;5034180;28;45421;-72
2021/10/17 04:30:53;;;;;;;;;24.25;20.75;;;;;8.60;72.78;101710.44;5033186;28;46305;-72
2021/10/17 04:33:18;;;;;;;;;27.25;27.25;;;;;8.60;72.58;101710.44;5032769;28;45385;-72
2021/10/17 04:35:44;;;;;;;;;26.00;22.50;;;;;8.53;73.13;101701.00;5032791;28;45561;-72
2021/10/17 04:38:09;;;;;;;;;21.50;19.50;;;;;8.59;72.64;101706.13;5032658;28;45785;-72
2021/10/17 04:40:36;;;;;;;;;30.75;23.25;;;;;8.59;72.53;101707.88;5031222;28;46214;-72
2021/10/17 04:43:03;;;;;;;;;27.50;22.00;;;;;8.58;72.79;101706.16;5030580;28;46805;-72
2021/10/17 04:45:28;;;;;;;;;22.75;22.50;;;;;8.55;73.19;101712.28;5032773;28;45531;-72
2021/10/17 04:47:54;;;;;;;;;24.25;21.25;;;;;8.27;72.69;101661.31;5033257;28;45536;-72
2021/10/17 04:50:19;;;;;;;;;25.00;19.67;;;;;8.44;73.08;101689.81;5031606;28;52094;-72
2021/10/17 04:52:47;;;;;;;;;22.75;20.50;;;;;8.53;73.38;101708.84;5032422;28;45301;-72
2021/10/17 04:55:13;;;;;;;;;30.00;21.00;;;;;8.52;73.25;101706.28;5030174;28;45422;-72
2021/10/17 04:57:40;;;;;;;;;26.50;23.25;;;;;8.48;73.62;101709.84;5017248;28;45412;-72
2021/10/17 05:00:06;;;;;;;;;27.75;22.50;;;;;8.43;73.72;101703.81;5020573;28;45519;-72
2021/10/17 05:02:31;;;;;;;;;25.25;22.50;;;;;8.37;73.33;101699.56;5018460;28;45620;-72
2021/10/17 05:04:57;;;;;;;;;34.75;23.25;;;;;8.46;73.65;101715.13;5026783;28;45510;-72
2021/10/17 05:07:22;;;;;;;;;23.00;22.25;;;;;8.44;73.93;101711.63;5032568;28;45487;-72
2021/10/17 05:09:47;;;;;;;;;34.75;26.00;;;;;8.33;73.60;101705.69;5021853;28;45933;-72
2021/10/17 05:12:13;;;;;;;;;27.33;22.67;;;;;8.41;73.66;101714.34;5021812;28;53686;-72
2021/10/17 05:14:38;;;;;;;;;30.50;28.25;;;;;8.41;73.67;101722.19;5025502;28;45507;-72
2021/10/17 05:17:03;;;;;;;;;30.00;25.00;;;;;8.23;73.50;101691.91;5020168;28;48785;-72
2021/10/17 05:19:28;;;;;;;;;28.75;23.75;;;;;8.38;73.51;101722.22;5015396;28;46341;-72
2021/10/17 05:21:54;;;;;;;;;24.75;24.00;;;;;8.28;73.59;101704.91;5012843;28;45261;-72
2021/10/17 05:24:19;;;;;;;;;32.00;26.00;;;;;8.36;73.69;101717.03;5027394;28;45507;-72
2021/10/17 05:26:45;;;;;;;;;26.75;22.75;;;;;8.25;73.62;101710.22;5025184;28;45301;-72
2021/10/17 05:29:10;;;;;;;;;30.25;25.00;;;;;8.31;73.76;101717.97;5020275;28;46039;-72
2021/10/17 05:31:35;;;;;;;;;25.50;23.75;;;;;8.31;73.52;101726.69;5017553;28;45768;-72
2021/10/17 05:34:00;;;;;;;;;24.25;20.75;;;;;8.30;73.69;101718.84;5032286;28;45500;-72
2021/10/17 05:36:26;;;;;;;;;29.33;22.33;;;;;8.30;73.45;101722.34;5027841;28;45317;-71
2021/10/17 05:38:51;;;;;;;;;24.75;21.75;;;;;8.26;73.41;101720.66;5006575;28;46260;-72
2021/10/17 05:41:17;;;;;;;;;26.75;23.00;;;;;8.27;73.51;101721.53;5019940;28;45492;-71
2021/10/17 05:43:42;;;;;;;;;28.50;22.75;;;;;7.98;73.61;101683.59;5023843;28;45487;-72
2021/10/17 05:46:07;;;;;;;;;26.25;21.00;;;;;8.14;73.86;101718.25;5018262;28;45243;-72
2021/10/17 05:48:33;;;;;;;;;25.25;20.00;;;;;8.20;73.37;101733.88;5020292;28;45425;-72
2021/10/17 05:50:58;;;;;;;;;31.00;22.75;;;;;8.14;73.71;101720.88;5022484;28;45337;-72
2021/10/17 05:53:23;;;;;;;;;27.67;23.67;;;;;8.11;73.98;101721.78;5024397;28;45808;-72
2021/10/17 05:55:49;;;;;;;;;26.00;21.25;;;;;8.21;73.63;101732.97;5026262;28;45373;-72
2021/10/17 05:58:14;;;;;;;;;26.50;22.75;;;;;8.19;74.07;101746.97;5035168;28;46296;-72
2021/10/17 06:00:40;;;;;;;;;29.50;22.75;;;;;7.85;73.80;101684.72;5017415;28;45443;-72
2021/10/17 06:03:07;;;;;;;;;24.75;20.75;;;;;8.08;73.80;101727.06;5034872;28;46147;-72
2021/10/17 06:05:32;;;;;;;;;25.50;20.50;;;;;8.09;73.72;101727.94;5035110;28;45480;-72
2021/10/17 06:07:58;;;;;;;;;29.75;21.50;;;;;7.93;74.33;101700.28;5034099;28;45968;-72
2021/10/17 06:10:24;;;;;;;;;25.50;19.00;;;;;8.17;74.19;101735.66;5032774;28;46105;-72
2021/10/17 06:12:49;;;;;;;;;23.75;21.00;;;;;8.20;74.02;101746.97;5035643;28;45497;-71
2021/10/17 06:15:15;;;;;;;;;25.25;22.50;;;;;8.22;73.81;101758.28;5034897;28;45404;-72
2021/10/17 06:17:40;;;;;;;;;22.25;20.00;;;;;8.19;74.08;101744.34;5035072;28;46006;-72
2021/10/17 06:20:06;;;;;;;;;21.00;20.00;;;;;8.28;74.05;101754.69;5034726;28;45441;-72
2021/10/17 06:22:31;;;;;;;;;35.25;25.00;;;;;8.22;74.32;101741.69;5034493;28;45511;-72
2021/10/17 06:24:57;;;;;;;;;23.75;22.00;;;;;8.28;74.28;101750.31;5035413;28;45442;-72
2021/10/17 06:27:22;;;;;;;;;24.00;20.75;;;;;8.06;74.17;101709.69;5034583;28;46441;-72
2021/10/17 06:29:48;;;;;;;;;28.25;25.00;;;;;8.41;74.41;101758.00;5013048;28;45384;-72
2021/10/17 06:32:13;;;;;;;;;20.75;19.75;;;;;8.41;74.33;101750.16;5031021;28;49025;-72
2021/10/17 06:34:38;;;;;;;;;20.50;19.25;;;;;8.38;73.93;101745.81;5033267;28;45665;-72
2021/10/17 06:37:04;;;;;;;;;32.75;22.75;;;;;8.48;74.01;101757.84;5034341;28;45569;-72
2021/10/17 06:39:29;;;;;;;;;21.67;21.67;;;;;8.56;74.10;101762.94;5033841;28;50615;-72
2021/10/17 06:41:54;;;;;;;;;22.00;19.00;;;;;8.65;73.61;101769.78;5033907;28;45511;-72
2021/10/17 06:44:21;;;;;;;;;28.50;22.25;;;;;8.72;73.81;101771.38;5016018;28;45614;-72
2021/10/17 06:46:49;;;;;;;;;25.75;21.00;;;;;8.73;73.49;101762.66;5033473;28;45465;-72
2021/10/17 06:49:14;;;;;;;;;26.50;22.25;;;;;8.82;73.52;101773.81;5034078;28;45411;-72
2021/10/17 06:51:39;;;;;;;;;23.75;22.00;;;;;8.94;73.16;101782.34;5013640;28;45431;-72
2021/10/17 06:54:05;;;;;;;;;25.75;25.25;;;;;9.00;73.49;101780.47;5031058;28;45547;-73
2021/10/17 06:56:30;;;;;;;;;23.00;21.33;;;;;9.04;73.11;101779.50;5031669;28;47646;-72
2021/10/17 06:58:56;;;;;;;;;25.50;21.00;;;;;9.09;73.24;101790.78;5031873;28;45423;-72
2021/10/17 07:01:21;;;;;;;;;23.75;20.75;;;;;9.14;73.22;101793.31;5033652;28;45493;-73
2021/10/17 07:03:47;;;;;;;;;27.00;21.50;;;;;9.13;72.86;101792.44;5034574;28;45466;-72
2021/10/17 07:06:13;;;;;;;;;26.50;24.25;;;;;9.21;73.09;101801.91;5032579;28;45899;-73
2021/10/17 07:08:39;;;;;;;;;23.50;22.75;;;;;9.22;72.66;101793.13;5032578;28;45644;-75
2021/10/17 07:11:04;;;;;;;;;25.00;22.50;;;;;9.33;72.79;101805.13;5018212;28;45771;-72
2021/10/17 07:13:29;;;;;;;;;22.25;19.25;;;;;9.37;72.80;101796.31;5033777;28;45477;-71
2021/10/17 07:15:55;;;;;;;;;32.25;24.50;;;;;9.52;72.53;101800.38;5034790;28;45308;-73
2021/10/17 07:18:20;;;;;;;;;28.75;23.75;;;;;9.45;72.80;101769.91;5030801;28;45518;-72
2021/10/17 07:20:45;;;;;;;;;25.50;24.00;;;;;9.70;72.83;101778.09;5028546;28;45459;-72
2021/10/17 07:23:11;;;;;;;;;29.00;22.75;;;;;10.02;72.38;101795.72;5025444;28;45542;-72
2021/10/17 07:25:36;;;;;;;;;29.00;27.00;;;;;10.17;72.10;101786.63;5027238;28;46201;-72
2021/10/17 07:28:02;;;;;;;;;31.50;25.25;;;;;10.41;71.62;101796.56;5041035;28;50854;-72
2021/10/17 07:30:27;;;;;;;;;39.25;27.75;;;;;10.55;71.53;101795.34;5031537;28;45687;-72
2021/10/17 07:32:52;;;;;;;;;30.25;25.00;;;;;10.78;71.23;101792.09;5030497;28;45509;-72
2021/10/17 07:35:19;;;;;;;;;30.50;24.50;;;;;11.10;70.75;101793.84;5030110;28;45601;-72
2021/10/17 07:37:44;;;;;;;;;32.25;21.50;;;;;11.64;70.00;101788.75;5031062;28;45994;-73
2021/10/17 07:40:10;;;;;;;;;22.25;16.50;;;;;13.09;69.76;101788.28;5032040;28;45929;-73
2021/10/17 07:42:35;;;;;;;;;32.50;26.00;;;;;15.36;67.60;101774.53;5029724;28;45403;-72
2021/10/17 07:45:02;;;;;;;;;27.75;24.50;;;;;17.72;63.99;101760.66;5024840;28;45631;-72
2021/10/17 07:47:27;;;;;;;;;27.75;25.50;;;;;20.02;59.61;101776.78;5029571;28;45770;-72
2021/10/17 07:49:53;;;;;;;;;30.25;23.50;;;;;21.86;56.37;101776.34;5033446;28;45427;-72
2021/10/17 07:52:18;;;;;;;;;27.50;22.00;;;;;22.90;52.58;101781.88;5034611;28;49333;-72
2021/10/17 07:54:44;;;;;;;;;21.25;20.00;;;;;23.11;50.96;101778.47;5033471;28;46179;-73
2021/10/17 07:57:10;;;;;;;;;29.25;22.25;;;;;23.45;49.69;101779.31;5033545;28;45587;-73
2021/10/17 07:59:36;;;;;;;;;23.00;22.00;;;;;23.48;48.88;101786.25;5031233;28;45402;-72
2021/10/17 08:02:02;;;;;;;;;21.75;20.25;;;;;23.92;47.95;101778.13;5029461;28;45364;-72
2021/10/17 08:04:27;;;;;;;;;27.75;23.00;;;;;24.40;46.28;101768.81;5033362;28;46573;-73
2021/10/17 08:06:52;;;;;;;;;24.75;22.00;;;;;24.59;45.08;101779.69;5033770;28;45584;-73
2021/10/17 08:09:18;;;;;;;;;23.00;22.00;;;;;24.62;45.05;101778.56;5040798;28;55195;-73
2021/10/17 08:11:43;;;;;;;;;21.75;19.00;;;;;25.04;45.37;101778.50;5041814;28;45486;-73
2021/10/17 08:14:08;;;;;;;;;26.75;22.75;;;;;25.59;43.54;101770.94;5033060;28;45473;-73
2021/10/17 08:16:34;;;;;;;;;21.50;17.50;;;;;26.31;42.29;101775.13;5031891;28;45513;-73
2021/10/17 08:18:59;;;;;;;;;25.75;21.00;;;;;26.69;41.32;101756.22;5033504;28;45344;-73
2021/10/17 08:21:25;;;;;;;;;19.75;19.00;;;;;27.31;40.98;101786.28;5033392;28;45466;-73
2021/10/17 08:23:50;;;;;;;;;21.75;20.50;;;;;27.76;39.62;101780.91;5033028;28;45489;-73
2021/10/17 08:26:16;;;;;;;;;27.00;19.75;;;;;28.32;39.09;101777.03;5019443;28;45561;-73
2021/10/17 08:28:41;;;;;;;;;20.25;19.25;;;;;29.21;38.17;101792.22;5032526;28;45431;-73
2021/10/17 08:31:06;;;;;;;;;21.75;18.75;;;;;29.52;37.46;101773.53;5033917;28;45416;-73
2021/10/17 08:33:32;;;;;;;;;24.00;19.50;;;;;30.20;36.78;101779.81;5036401;28;46091;-72
2021/10/17 08:35:57;;;;;;;;;33.75;30.25;;;;;31.26;36.51;101771.50;5034909;28;45457;-73
2021/10/17 08:38:23;;;;;;;;;21.25;19.75;;;;;30.76;34.50;101775.41;5036292;28;45394;-74
2021/10/17 08:40:50;;;;;;;;;22.00;19.50;;;;;30.56;34.62;101781.16;5034952;28;45437;-72
2021/10/17 08:43:17;;;;;;;;;24.75;23.25;;;;;31.00;34.79;101777.16;5034490;28;46399;-72
2021/10/17 08:45:44;;;;;;;;;25.75;22.75;;;;;31.65;33.28;101763.34;5031800;28;45533;-72
2021/10/17 08:48:09;;;;;;;;;20.50;18.25;;;;;32.73;32.72;101765.84;5035362;28;45456;-72
2021/10/17 08:50:35;;;;;;;;;23.50;18.75;;;;;33.85;31.06;101768.38;5036288;28;45396;-72
2021/10/17 08:53:01;;;;;;;;;24.50;19.25;;;;;34.92;29.83;101763.59;5033282;28;45539;-72
2021/10/17 08:55:26;;;;;;;;;18.25;17.25;;;;;34.78;28.37;101761.84;5035501;28;45336;-72
2021/10/17 08:57:53;;;;;;;;;19.25;16.75;;;;;34.29;28.77;101768.16;5035372;28;45604;-73
2021/10/17 09:00:24;;;;;;;;;17.50;17.50;;;;;34.09;30.44;101770.75;5034855;28;45472;-72
2021/10/17 09:02:50;;;;;;;;;18.50;16.50;;;;;33.37;29.00;101757.97;5035887;28;45376;-72
2021/10/17 09:05:15;;;;;;;;;17.25;17.25;;;;;32.62;28.81;101769.03;5035740;28;45383;-72
2021/10/17 09:07:40;;;;;;;;;19.75;16.00;;;;;31.88;29.19;101763.38;5036569;28;45314;-72
2021/10/17 09:10:12;;;;;;;;;17.75;14.50;;;;;31.57;29.75;101760.66;5035236;28;45313;-72
2021/10/17 09:12:39;;;;;;;;;18.50;14.50;;;;;31.14;28.82;101763.72;5036247;28;45884;-72
2021/10/17 09:15:24;;;;;;;;;18.75;14.25;;;;;30.56;29.58;101766.75;5034527;28;45632;-72
2021/10/17 09:18:24;;;;;;;;;18.50;18.00;;;;;30.41;29.99;101764.72;5035309;28;45401;-72
2021/10/17 09:20:58;;;;;;;;;14.25;14.25;;;;;30.22;29.80;101765.06;5035859;28;45536;-72
2021/10/17 09:23:24;;;;;;;;;15.50;13.00;;;;;30.70;29.94;101776.94;5035755;28;45513;-72
2021/10/17 09:25:53;;;;;;;;;16.33;14.67;;;;;31.63;29.56;101776.22;5036185;28;45395;-72
2021/10/17 09:28:23;;;;;;;;;23.00;16.50;;;;;32.39;28.96;101777.25;5034487;28;45462;-72
2021/10/17 09:31:04;;;;;;;;;15.75;15.00;;;;;32.31;28.13;101761.81;5037568;28;45513;-72
2021/10/17 09:33:30;;;;;;;;;15.25;15.25;;;;;32.03;28.13;101761.56;5034156;28;45595;-73
2021/10/17 09:35:56;;;;;;;;;14.00;12.00;;;;;31.96;28.75;101771.47;5017323;28;45653;-72
2021/10/17 09:38:33;;;;;;;;;14.00;13.00;;;;;32.08;28.03;101761.84;5034945;28;45481;-71
2021/10/17 09:41:23;;;;;;;;;15.75;13.00;;;;;31.14;28.40;101752.84;5034772;28;49544;-72
2021/10/17 09:43:54;;;;;;;;;15.00;13.50;;;;;30.42;29.19;101760.97;5032884;28;45652;-72
2021/10/17 09:46:20;;;;;;;;;13.50;13.25;;;;;29.89;29.20;101761.47;5034188;28;45832;-72
2021/10/17 09:48:46;;;;;;;;;13.00;11.25;;;;;29.64;29.05;101758.69;5035505;28;45517;-72
2021/10/17 09:51:15;;;;;;;;;10.50;10.00;;;;;29.43;29.47;101760.97;5033788;28;45443;-72
2021/10/17 09:53:52;;;;;;;;;18.00;14.75;;;;;29.28;29.65;101758.06;5034201;28;46205;-72
2021/10/17 09:56:33;;;;;;;;;13.25;13.00;;;;;29.16;29.98;101751.25;5034880;28;45568;-71
2021/10/17 09:59:01;;;;;;;;;13.00;13.00;;;;;28.86;29.40;101750.72;5033481;28;45561;-71
2021/10/17 10:01:28;;;;;;;;;14.25;11.25;;;;;28.60;30.06;101753.44;5034402;28;45497;-72
2021/10/17 10:03:54;;;;;;;;;12.75;12.00;;;;;28.65;30.78;101750.25;5034512;28;47076;-71
2021/10/17 10:06:21;;;;;;;;;11.00;10.00;;;;;28.43;30.50;101727.31;5033301;28;46878;-73
2021/10/17 10:08:47;;;;;;;;;15.00;11.75;;;;;28.37;30.21;101746.03;5033205;28;45499;-73
2021/10/17 10:11:19;;;;;;;;;11.00;11.00;;;;;27.80;30.14;101746.34;5033843;28;45620;-72
2021/10/17 10:13:45;;;;;;;;;13.00;8.25;;;;;27.42;30.42;101750.13;5032978;28;45631;-72
2021/10/17 10:16:11;;;;;;;;;9.75;9.75;;;;;26.98;31.37;101752.56;5034995;28;45696;-71
2021/10/17 10:18:37;;;;;;;;;12.25;9.75;;;;;26.36;31.39;101745.91;5034829;28;45435;-69
2021/10/17 10:21:02;;;;;;;;;9.50;9.25;;;;;25.64;31.71;101748.00;5030093;28;45742;-70
2021/10/17 10:23:28;;;;;;;;;11.00;10.00;;;;;24.94;32.07;101743.50;5033123;28;46805;-70
2021/10/17 10:25:54;;;;;;;;;10.75;10.00;;;;;24.43;33.37;101758.66;5043679;28;46011;-71
2021/10/17 10:28:21;;;;;;;;;14.00;11.75;;;;;24.07;33.82;101754.53;5033665;28;45431;-69
2021/10/17 10:30:47;;;;;;;;;12.50;11.25;;;;;24.05;34.31;101745.72;5033091;28;45618;-69
2021/10/17 10:33:17;;;;;;;;;11.00;9.50;;;;;24.01;34.76;101757.69;5033499;28;45525;-71
2021/10/17 10:36:05;;;;;;;;;13.25;10.00;;;;;24.18;33.91;101754.47;5033278;28;45637;-70
2021/10/17 10:38:48;;;;;;;;;9.50;8.50;;;;;24.38;34.01;101760.88;5031324;28;45675;-71
2021/10/17 10:41:15;;;;;;;;;9.25;7.50;;;;;24.37;34.25;101752.94;5032211;28;45541;-71
2021/10/17 10:43:40;;;;;;;;;11.25;11.25;;;;;24.11;34.31;101755.94;5019991;28;46322;-70
2021/10/17 10:46:05;;;;;;;;;57.00;45.25;;;;;23.63;34.24;101756.38;5036467;28;45577;-71
2021/10/17 10:48:45;;;;;;;;;10.50;10.25;;;;;23.13;35.11;101742.53;5010154;28;45538;-69
2021/10/17 10:51:10;;;;;;;;;12.00;11.00;;;;;22.76;35.29;101744.56;5033540;28;45620;-69
2021/10/17 10:53:51;;;;;;;;;11.25;10.75;;;;;22.29;36.10;101740.19;5036225;28;46211;-70
2021/10/17 10:56:40;;;;;;;;;9.75;7.75;;;;;22.29;36.20;101753.56;5032839;28;45794;-69
2021/10/17 10:59:06;;;;;;;;;12.00;11.50;;;;;22.28;36.19;101739.31;5033424;28;45466;-71
2021/10/17 11:01:56;;;;;;;;;17.00;12.00;;;;;22.31;36.75;101743.59;5042679;28;45540;-71
2021/10/17 11:04:44;;;;;;;;;10.50;9.75;;;;;22.43;37.22;101748.00;5033284;28;45993;-72
2021/10/17 11:07:19;;;;;;;;;9.25;8.50;;;;;22.44;37.02;101741.69;5030636;28;45899;-71
2021/10/17 11:09:45;;;;;;;;;11.75;10.00;;;;;22.16;37.15;101742.09;5048083;28;45497;-72
2021/10/17 11:12:46;;;;;;;;;10.25;8.75;;;;;21.84;37.33;101740.00;5035634;28;45496;-71